createdAt,value
2022-12-01T06:44:12.392Z,1.41
2022-12-01T06:46:35.968Z,1.40
2022-12-01T06:48:58.697Z,1.50
2022-12-01T06:51:22.756Z,1.55
2022-12-01T06:53:45.424Z,1.64
2022-12-01T06:56:07.946Z,1.73
2022-12-01T06:58:32.452Z,1.99
2022-12-01T07:00:57.380Z,2.10
2022-12-01T07:03:20.436Z,1.95
2022-12-01T07:05:44.202Z,1.96
2022-12-01T07:08:07.562Z,1.89
2022-12-01T07:10:30.274Z,1.85
2022-12-01T07:12:55.569Z,1.96
2022-12-01T07:15:18.438Z,1.92
2022-12-01T07:17:41.071Z,1.95
2022-12-01T07:20:04.349Z,2.23
2022-12-01T07:22:32.618Z,2.34
2022-12-01T07:24:57.163Z,2.36
2022-12-01T07:27:20.286Z,2.41
2022-12-01T07:29:43.558Z,2.47
2022-12-01T07:32:07.776Z,2.47
2022-12-01T07:34:30.450Z,2.37
2022-12-01T07:36:53.068Z,2.48
2022-12-01T07:39:15.846Z,2.50
2022-12-01T07:41:38.614Z,2.58
2022-12-01T07:44:02.800Z,2.51
2022-12-01T07:46:27.140Z,2.58
2022-12-01T07:48:51.064Z,2.72
2022-12-01T07:51:16.855Z,2.81
2022-12-01T07:53:39.978Z,2.86
2022-12-01T07:56:08.561Z,2.96
2022-12-01T07:58:32.788Z,3.03
2022-12-01T08:00:55.417Z,3.23
2022-12-01T08:03:18.766Z,3.26
2022-12-01T08:05:41.368Z,3.38
2022-12-01T08:08:04.324Z,3.50
2022-12-01T08:10:27.016Z,3.47
2022-12-01T08:12:49.635Z,3.64
2022-12-01T08:15:12.317Z,3.78
2022-12-01T08:17:35.045Z,3.92
2022-12-01T08:19:57.686Z,3.78
2022-12-01T08:22:20.366Z,3.77
2022-12-01T08:24:42.958Z,3.89
2022-12-01T08:27:05.675Z,3.60
2022-12-01T08:29:28.566Z,3.58
2022-12-01T08:31:51.365Z,3.74
2022-12-01T08:34:14.052Z,3.70
2022-12-01T08:36:38.109Z,3.86
2022-12-01T08:39:02.215Z,3.92
2022-12-01T08:41:25.386Z,4.10
2022-12-01T08:44:03.269Z,4.28
2022-12-01T08:46:29.198Z,4.33
2022-12-01T08:48:52.152Z,4.40
2022-12-01T08:51:16.659Z,4.47
2022-12-01T08:53:46.562Z,4.50
2022-12-01T08:56:17.738Z,4.61
2022-12-01T08:58:40.465Z,4.62
2022-12-01T09:01:08.982Z,4.72
2022-12-01T09:03:32.102Z,4.77
2022-12-01T09:05:54.862Z,4.70
2022-12-01T09:08:33.209Z,4.81
2022-12-01T09:10:55.955Z,4.88
2022-12-01T09:13:18.657Z,4.91
2022-12-01T09:15:41.431Z,4.96
2022-12-01T09:18:04.163Z,5.13
2022-12-01T09:20:27.149Z,5.06
2022-12-01T09:22:49.954Z,4.88
2022-12-01T09:25:14.794Z,4.85
2022-12-01T09:27:37.376Z,4.95
2022-12-01T09:30:00.124Z,4.93
2022-12-01T09:32:22.912Z,5.05
2022-12-01T09:34:45.663Z,4.87
2022-12-01T09:37:08.339Z,4.87
2022-12-01T09:39:31.186Z,4.87
2022-12-01T09:42:08.247Z,4.95
2022-12-01T09:44:45.525Z,4.79
2022-12-01T09:47:19.296Z,4.93
2022-12-01T09:49:52.754Z,5.02
2022-12-01T09:52:18.210Z,5.09
2022-12-01T09:54:41.317Z,5.15
2022-12-01T09:57:04.193Z,5.16
2022-12-01T09:59:33.368Z,5.36
2022-12-01T10:02:01.119Z,5.25
2022-12-01T10:04:34.251Z,5.37
2022-12-01T10:07:02.322Z,5.43
2022-12-01T10:09:43.898Z,5.50
2022-12-01T10:12:14.982Z,5.64
2022-12-01T10:14:38.024Z,5.81
2022-12-01T10:17:31.246Z,5.87
2022-12-01T10:20:02.607Z,5.74
2022-12-01T10:22:43.918Z,6.11
2022-12-01T10:25:20.887Z,6.30
2022-12-01T10:27:43.576Z,6.05
2022-12-01T10:30:12.462Z,5.81
2022-12-01T10:33:01.196Z,6.02
2022-12-01T10:35:29.388Z,6.11
2022-12-01T10:37:59.040Z,6.04
2022-12-01T10:40:21.828Z,6.21
2022-12-01T10:42:49.617Z,6.09
2022-12-01T10:45:30.679Z,5.71
2022-12-01T10:48:11.372Z,5.61
2022-12-01T10:50:36.150Z,5.61
2022-12-01T10:52:58.746Z,5.67
2022-12-01T10:55:27.806Z,5.64
2022-12-01T10:57:52.442Z,5.61
2022-12-01T11:00:57.444Z,5.53
2022-12-01T11:03:07.233Z,5.67
2022-12-01T11:05:38.452Z,6.01
2022-12-01T11:08:02.771Z,6.12
2022-12-01T11:10:37.230Z,6.18
2022-12-01T11:13:07.019Z,6.28
2022-12-01T11:15:39.649Z,6.43
2022-12-01T11:18:05.878Z,6.64
2022-12-01T11:20:38.198Z,6.60
2022-12-01T11:23:09.725Z,6.64
2022-12-01T11:25:32.381Z,6.54
2022-12-01T11:27:57.733Z,6.43
2022-12-01T11:30:26.814Z,6.26
2022-12-01T11:32:59.242Z,6.56
2022-12-01T11:35:25.565Z,6.71
2022-12-01T11:38:21.084Z,6.71
2022-12-01T11:40:49.843Z,6.76
2022-12-01T11:43:28.481Z,6.73
2022-12-01T11:45:52.141Z,6.64
2022-12-01T11:48:21.178Z,6.84
2022-12-01T11:50:59.634Z,6.71
2022-12-01T11:53:38.948Z,6.78
2022-12-01T11:56:23.623Z,6.83
2022-12-01T11:58:48.934Z,6.81
2022-12-01T12:01:29.447Z,6.73
2022-12-01T12:04:21.918Z,6.85
2022-12-01T12:07:16.249Z,6.70
2022-12-01T12:09:44.752Z,6.76
2022-12-01T12:12:07.875Z,6.70
2022-12-01T12:14:49.932Z,6.77
2022-12-01T12:17:20.031Z,6.80
2022-12-01T12:20:08.931Z,6.91
2022-12-01T12:22:58.640Z,7.02
2022-12-01T12:25:56.779Z,7.20
2022-12-01T12:28:23.125Z,7.15
2022-12-01T12:31:05.010Z,7.12
2022-12-01T12:34:14.210Z,6.99
2022-12-01T12:36:42.713Z,7.01
2022-12-01T12:39:17.271Z,7.12
2022-12-01T12:41:46.056Z,7.25
2022-12-01T12:44:17.608Z,7.22
2022-12-01T12:47:03.376Z,7.30
2022-12-01T12:49:42.970Z,7.46
2022-12-01T12:52:13.202Z,7.64
2022-12-01T12:55:00.381Z,7.49
2022-12-01T12:57:31.583Z,7.55
2022-12-01T13:00:04.124Z,7.63
2022-12-01T13:02:33.507Z,7.66
2022-12-01T13:05:05.994Z,7.70
2022-12-01T13:07:39.418Z,7.66
2022-12-01T13:10:12.107Z,7.70
2022-12-01T13:12:43.708Z,7.69
2022-12-01T13:15:19.350Z,7.66
2022-12-01T13:17:46.370Z,7.67
2022-12-01T13:20:18.320Z,7.62
2022-12-01T13:22:41.506Z,7.50
2022-12-01T13:25:05.348Z,7.49
2022-12-01T13:27:31.724Z,7.55
2022-12-01T13:29:56.239Z,7.52
2022-12-01T13:32:30.721Z,7.33
2022-12-01T13:34:53.502Z,7.28
2022-12-01T13:37:26.915Z,7.28
2022-12-01T13:39:54.737Z,7.23
2022-12-01T13:42:27.986Z,7.20
2022-12-01T13:45:10.724Z,7.19
2022-12-01T13:47:48.147Z,7.22
2022-12-01T13:50:46.090Z,7.29
2022-12-01T13:53:18.023Z,7.15
2022-12-01T13:56:06.175Z,7.07
2022-12-01T13:58:34.765Z,7.01
2022-12-01T14:01:20.599Z,6.99
2022-12-01T14:03:51.724Z,7.05
2022-12-01T14:06:50.831Z,6.92
2022-12-01T14:09:29.760Z,6.90
2022-12-01T14:12:01.442Z,6.90
2022-12-01T14:14:26.705Z,6.80
2022-12-01T14:16:53.110Z,6.80
2022-12-01T14:19:46.628Z,6.78
2022-12-01T14:22:45.229Z,6.69
2022-12-01T14:25:19.912Z,6.61
2022-12-01T14:27:43.926Z,6.61
2022-12-01T14:30:47.863Z,6.53
2022-12-01T14:33:47.914Z,6.50
2022-12-01T14:36:36.252Z,6.40
2022-12-01T14:38:58.989Z,6.42
2022-12-01T14:41:31.341Z,6.33
2022-12-01T14:44:06.043Z,6.34
2022-12-01T14:46:31.080Z,6.23
2022-12-01T14:48:55.165Z,6.15
2022-12-01T14:51:32.396Z,6.08
2022-12-01T14:53:56.347Z,6.05
2022-12-01T14:56:22.016Z,6.11
2022-12-01T14:59:15.150Z,6.02
2022-12-01T15:01:38.276Z,5.99
2022-12-01T15:04:04.122Z,5.97
2022-12-01T15:06:30.069Z,5.97
2022-12-01T15:12:00.217Z,5.90
2022-12-01T15:14:22.776Z,5.85
2022-12-01T15:16:45.931Z,5.83
2022-12-01T15:19:31.862Z,5.73
2022-12-01T15:21:54.691Z,5.68
2022-12-01T15:24:25.880Z,5.68
2022-12-01T15:26:50.701Z,5.77
2022-12-01T15:29:22.729Z,5.73
2022-12-01T15:31:48.274Z,5.87
2022-12-01T15:34:21.197Z,5.84
2022-12-01T15:36:44.932Z,5.91
2022-12-01T15:39:16.216Z,5.98
2022-12-01T15:41:39.939Z,6.01
2022-12-01T15:44:03.782Z,6.01
2022-12-01T15:46:32.514Z,6.08
2022-12-01T15:49:15.956Z,6.05
2022-12-01T15:51:38.682Z,5.97
2022-12-01T15:54:03.579Z,5.91
2022-12-01T15:56:38.073Z,5.81
2022-12-01T15:59:41.649Z,6.04
2022-12-01T16:02:32.067Z,5.92
2022-12-01T16:05:28.757Z,6.04
2022-12-01T16:08:13.167Z,6.02
2022-12-01T16:10:36.682Z,6.09
2022-12-01T16:13:37.094Z,6.05
2022-12-01T16:15:59.782Z,6.01
2022-12-01T16:18:33.291Z,5.94
2022-12-01T16:21:03.110Z,6.02
2022-12-01T16:23:26.403Z,6.02
2022-12-01T16:25:49.025Z,6.02
2022-12-01T16:28:24.170Z,5.97
2022-12-01T16:30:47.563Z,5.91
2022-12-01T16:33:18.942Z,5.94
2022-12-01T16:35:41.610Z,5.87
2022-12-01T16:38:30.534Z,5.78
2022-12-01T16:40:56.146Z,5.81
2022-12-01T16:43:21.839Z,5.74
2022-12-01T16:45:46.301Z,5.73
2022-12-01T16:48:09.615Z,5.71
2022-12-01T16:50:33.525Z,5.75
2022-12-01T16:52:56.247Z,5.75
2022-12-01T16:55:37.593Z,5.63
2022-12-01T16:58:00.509Z,5.60
2022-12-01T17:00:23.686Z,5.67
2022-12-01T17:02:46.506Z,5.60
2022-12-01T17:05:11.166Z,5.57
2022-12-01T17:07:33.990Z,5.51
2022-12-01T17:09:56.838Z,5.44
2022-12-01T17:12:19.443Z,5.46
2022-12-01T17:14:42.030Z,5.50
2022-12-01T17:17:04.964Z,5.33
2022-12-01T17:19:27.729Z,5.25
2022-12-01T17:21:50.532Z,5.27
2022-12-01T17:24:18.700Z,5.29
2022-12-01T17:26:45.135Z,5.18
2022-12-01T17:29:07.748Z,5.18
2022-12-01T17:31:30.824Z,5.15
2022-12-01T17:33:53.489Z,5.04
2022-12-01T17:36:16.550Z,5.02
2022-12-01T17:38:41.969Z,5.06
2022-12-01T17:41:10.442Z,5.06
2022-12-01T17:43:34.953Z,5.04
2022-12-01T17:45:57.665Z,5.05
2022-12-01T17:48:20.572Z,4.98
2022-12-01T17:50:43.582Z,4.99
2022-12-01T17:53:06.142Z,4.85
2022-12-01T17:55:29.009Z,4.70
2022-12-01T17:57:51.661Z,4.43
2022-12-01T18:00:14.909Z,4.30
2022-12-01T18:02:37.478Z,4.28
2022-12-01T18:05:00.383Z,4.46
2022-12-01T18:07:23.605Z,4.57
2022-12-01T18:09:46.465Z,4.64
2022-12-01T18:12:09.414Z,4.67
2022-12-01T18:14:34.567Z,4.54
2022-12-01T18:16:57.275Z,4.57
2022-12-01T18:19:20.699Z,4.39
2022-12-01T18:21:43.691Z,4.39
2022-12-01T18:24:08.919Z,4.32
2022-12-01T18:26:35.185Z,4.36
2022-12-01T18:29:04.964Z,4.36
2022-12-01T18:31:29.150Z,4.40
2022-12-01T18:33:52.346Z,4.36
2022-12-01T18:36:18.184Z,4.26
2022-12-01T18:38:41.417Z,4.37
2022-12-01T18:41:04.549Z,4.16
2022-12-01T18:43:28.673Z,4.12
2022-12-01T18:45:51.740Z,4.13
2022-12-01T18:48:14.401Z,4.02
2022-12-01T18:50:38.013Z,4.07
2022-12-01T18:53:00.952Z,3.91
2022-12-01T18:55:23.741Z,3.93
2022-12-01T18:57:46.995Z,3.98
2022-12-01T19:00:10.900Z,3.92
2022-12-01T19:02:33.797Z,3.88
2022-12-01T19:04:56.648Z,3.84
2022-12-01T19:07:19.591Z,3.67
2022-12-01T19:09:42.515Z,3.74
2022-12-01T19:12:06.658Z,3.68
2022-12-01T19:14:29.328Z,3.74
2022-12-01T19:16:51.952Z,3.82
2022-12-01T19:19:14.827Z,3.96
2022-12-01T19:21:39.488Z,3.99
2022-12-01T19:24:02.359Z,4.03
2022-12-01T19:26:25.980Z,3.99
2022-12-01T19:28:50.303Z,4.01
2022-12-01T19:31:18.904Z,4.02
2022-12-01T19:33:42.503Z,4.01
2022-12-01T19:36:07.924Z,3.89
2022-12-01T19:38:31.675Z,3.88
2022-12-01T19:40:54.913Z,3.92
2022-12-01T19:43:18.355Z,3.96
2022-12-01T19:45:41.347Z,3.99
2022-12-01T19:48:05.651Z,4.03
2022-12-01T19:50:28.828Z,3.99
2022-12-01T19:52:51.640Z,3.95
2022-12-01T19:55:14.495Z,3.92
2022-12-01T19:57:37.338Z,3.91
2022-12-01T20:00:00.401Z,3.91
2022-12-01T20:02:28.889Z,3.82
2022-12-01T20:04:52.522Z,3.68
2022-12-01T20:07:15.739Z,3.73
2022-12-01T20:09:39.077Z,3.71
2022-12-01T20:12:01.955Z,3.60
2022-12-01T20:14:24.827Z,3.51
2022-12-01T20:16:47.488Z,3.44
2022-12-01T20:19:10.415Z,3.37
2022-12-01T20:21:35.597Z,3.30
2022-12-01T20:24:06.915Z,3.36
2022-12-01T20:26:37.601Z,3.31
2022-12-01T20:29:03.953Z,3.16
2022-12-01T20:31:28.611Z,3.23
2022-12-01T20:33:53.683Z,3.23
2022-12-01T20:36:17.327Z,3.23
2022-12-01T20:38:41.391Z,3.19
2022-12-01T20:41:05.526Z,3.24
2022-12-01T20:43:28.683Z,3.16
2022-12-01T20:45:51.778Z,3.07
2022-12-01T20:48:14.921Z,2.96
2022-12-01T20:50:38.678Z,2.98
2022-12-01T20:53:01.895Z,2.89
2022-12-01T20:55:26.885Z,2.74
2022-12-01T20:57:49.845Z,2.71
2022-12-01T21:00:13.714Z,2.66
2022-12-01T21:02:37.585Z,2.54
2022-12-01T21:05:00.727Z,2.58
2022-12-01T21:07:23.708Z,2.62
2022-12-01T21:09:46.465Z,2.58
2022-12-01T21:12:34.507Z,2.52
2022-12-01T21:15:20.037Z,2.51
2022-12-01T21:17:49.036Z,2.60
2022-12-01T21:20:21.771Z,2.58
2022-12-01T21:22:46.319Z,2.74
2022-12-01T21:25:15.890Z,2.85
2022-12-01T21:27:38.461Z,3.03
2022-12-01T21:30:01.295Z,3.02
2022-12-01T21:32:31.927Z,3.12
2022-12-01T21:35:00.044Z,3.15
2022-12-01T21:37:24.766Z,3.12
2022-12-01T21:39:51.001Z,3.19
2022-12-01T21:42:22.766Z,3.15
2022-12-01T21:44:45.655Z,3.15
2022-12-01T21:47:26.409Z,3.10
2022-12-01T21:49:54.418Z,3.17
2022-12-01T21:52:20.158Z,3.28
2022-12-01T21:54:42.959Z,3.17
2022-12-01T21:57:25.028Z,3.24
2022-12-01T21:59:48.432Z,3.36
2022-12-01T22:02:57.009Z,3.54
2022-12-01T22:06:21.441Z,3.64
2022-12-01T22:08:38.397Z,3.54
2022-12-01T22:11:18.574Z,3.61
2022-12-01T22:13:44.142Z,3.86
2022-12-01T22:16:19.768Z,3.95
2022-12-01T22:18:46.664Z,3.98
2022-12-01T22:21:28.471Z,3.85
2022-12-01T22:24:11.228Z,3.60
2022-12-01T22:26:36.665Z,3.55
2022-12-01T22:29:00.386Z,3.55
2022-12-01T22:31:23.266Z,3.61
2022-12-01T22:33:45.807Z,3.67
2022-12-01T22:36:23.092Z,3.38
2022-12-01T22:38:45.604Z,3.31
2022-12-01T22:41:13.321Z,3.27
2022-12-01T22:43:44.420Z,3.13
2022-12-01T22:46:16.470Z,3.05
2022-12-01T22:48:44.734Z,3.03
2022-12-01T22:51:13.606Z,2.92
2022-12-01T22:53:36.153Z,2.84
2022-12-01T22:56:01.338Z,2.84
2022-12-01T22:58:29.845Z,2.77
2022-12-01T23:00:53.527Z,2.75
2022-12-01T23:03:16.666Z,2.89
2022-12-01T23:05:39.280Z,2.96
2022-12-01T23:08:02.931Z,2.91
2022-12-01T23:10:30.271Z,2.86
2022-12-01T23:12:55.248Z,2.75
2022-12-01T23:15:34.419Z,2.61
2022-12-01T23:18:14.221Z,2.77
2022-12-01T23:20:36.860Z,2.79
2022-12-01T23:23:03.139Z,2.88
2022-12-01T23:25:27.439Z,2.88
2022-12-01T23:27:52.233Z,2.93
2022-12-01T23:30:16.273Z,2.92
2022-12-01T23:32:38.841Z,2.88
2022-12-01T23:35:02.044Z,2.84
2022-12-01T23:37:35.824Z,2.88
2022-12-01T23:39:58.722Z,2.81
2022-12-01T23:42:21.608Z,2.85
2022-12-01T23:44:45.595Z,2.77
2022-12-01T23:47:21.873Z,2.72
2022-12-01T23:49:46.527Z,2.74
2022-12-01T23:52:12.870Z,2.77
2022-12-01T23:54:38.676Z,2.78
2022-12-01T23:57:03.940Z,2.81
2022-12-01T23:59:27.937Z,2.78
